METAR Data

Data at: 2124 UTC 01 Dec 2021

METAR for:KEWB (New Bedford Rgnl, MA, US)
Text:KEWB 012053Z 00000KT 10SM CLR 07/M03 A3011 RMK AO2 SLP197 T00721028 50007
Temperature: 7.2°C ( 45°F)
Dewpoint: -2.8°C ( 27°F) [RH = 49%]
Pressure (altimeter):30.11 inches Hg (1019.7 mb) [Sea level pressure: 1019.7 mb]
Winds:calm
Visibility:10 or more sm (16+ km)
Ceiling:at least 12,000 feet AGL
Clouds:sky clear below 12,000 feet AGL